EST,Max TemperatureF,Mean TemperatureF,Min TemperatureF,Max Dew PointF,MeanDew PointF,Min DewpointF,Max Humidity, Mean Humidity, Min Humidity, Max Sea Level PressureIn, Mean Sea Level PressureIn, Min Sea Level PressureIn, Max VisibilityMiles, Mean VisibilityMiles, Min VisibilityMiles, Max Wind SpeedMPH, Mean Wind SpeedMPH, Max Gust SpeedMPH,PrecipitationIn, CloudCover, Events, WindDirDegrees
2013-2-1,30,24,15,21,7,3,80,56,46,30.39,30.24,29.85,10,10,7,16,10,29,0.00,4,,272
2013-2-2,32,22,12,27,14,5,100,75,47,30.38,30.19,30.01,10,8,2,12,2,,0.00,3,,181
2013-2-3,33,28,23,28,23,14,100,86,59,30.03,29.92,29.82,10,7,2,16,3,32,0.00,6,,253
2013-2-4,35,29,23,30,20,12,100,73,48,30.09,29.99,29.89,10,7,0,18,8,28,0.00,5,,244
2013-2-5,37,34,30,34,32,30,100,96,75,29.95,29.89,29.85,10,6,2,6,0,16,0.00,7,,178
2013-2-6,35,30,26,34,27,23,100,80,70,30.36,30.20,29.95,10,10,7,15,4,23,0.00,6,,295
2013-2-7,37,29,21,28,24,19,100,80,65,30.42,30.32,30.18,10,8,5,12,3,17,0.00,2,,110
2013-2-8,39,36,30,34,30,23,100,87,69,30.17,29.99,29.83,10,9,4,21,4,38,0.00,7,,224
2013-2-9,35,30,23,23,20,18,93,64,48,30.42,30.30,30.08,10,10,7,16,8,32,0.00,3,,329
2013-2-10,42,30,19,25,21,18,100,69,42,30.46,30.34,30.15,10,10,7,6,1,,0.00,0,,131
2013-2-11,64,50,35,48,35,27,100,72,29,30.15,29.90,29.72,10,8,2,24,4,40,0.00,4,,226
2013-2-12,51,42,33,30,27,25,81,53,37,30.05,29.97,29.89,10,10,10,22,11,37,0.00,1,,276
2013-2-13,41,34,28,36,31,27,100,89,61,29.97,29.82,29.69,10,9,4,8,1,,0.00,3,,221
2013-2-14,46,39,32,32,29,25,93,71,53,30.01,29.97,29.84,10,10,7,13,4,24,0.00,3,,235
2013-2-15,50,39,28,34,30,27,100,80,43,30.06,30.02,29.98,10,8,3,17,3,21,0.00,4,,281
2013-2-16,35,30,26,30,21,14,87,63,48,30.03,29.98,29.93,10,10,10,13,7,17,0.00,3,,327
2013-2-17,28,24,21,19,13,9,93,63,47,30.26,30.05,29.91,10,9,1,26,8,32,0.00,3,,287
2013-2-18,42,28,15,21,13,7,79,51,33,30.37,30.25,30.09,10,10,10,16,4,24,0.00,0,,203
2013-2-19,51,38,26,39,28,19,100,75,52,30.08,29.88,29.68,10,9,2,21,3,41,0.00,3,,255
2013-2-20,32,28,23,21,14,10,69,58,51,30.22,30.08,29.94,10,10,5,22,11,37,0.00,5,,274
2013-2-21,32,28,23,19,15,10,80,61,51,30.36,30.26,30.18,10,10,10,16,7,24,0.00,4,,310
2013-2-22,32,28,24,28,24,18,93,81,64,30.37,30.27,30.16,10,10,3,9,1,,0.00,5,,124
2013-2-23,46,39,32,34,32,28,100,84,62,30.15,29.99,29.86,10,10,7,6,1,,0.00,5,,338
2013-2-24,41,36,32,34,27,19,100,75,57,30.16,30.00,29.87,10,9,5,17,5,26,0.00,6,,299
2013-2-25,44,36,28,27,23,21,86,62,39,30.25,30.20,30.15,10,10,10,10,2,,0.00,2,,178
2013-2-26,37,32,26,36,30,23,100,92,70,30.20,30.02,29.71,10,7,2,9,2,,0.00,5,,32
2013-2-27,46,40,33,41,35,32,100,83,61,29.72,29.68,29.63,10,7,1,14,3,24,0.00,7,,217
2013-2-28,39,36,33,34,30,28,87,77,70,29.80,29.71,29.68,10,10,7,16,6,24,0.00,6,,251